N59TA LLHZ-LLHZ

Flight info

Callsign N59TA
Flight time 0h 5m
Altitude 5000
Route CVFR ROUTES
Aircraft B36T/L-V/N

Departure

Time 2026-04-28 08:38
Airport Herzliya Airport (LLHZ)

Arrival

Time 2026-04-28 08:43
Airport Herzliya Airport (LLHZ)
Time Latitude Longitude Altitude Speed Heading
2026-04-28 08:29 32.17886 34.83765 118 ft 0 kts 290°
2026-04-28 08:36 32.17903 34.83761 115 ft 5 kts 86°
2026-04-28 08:36 32.17881 34.83839 119 ft 10 kts 107°
2026-04-28 08:36 32.17881 34.83845 120 ft 0 kts 83°
2026-04-28 08:37 32.17883 34.83855 121 ft 7 kts 63°
2026-04-28 08:37 32.17917 34.83842 122 ft 0 kts 288°
2026-04-28 08:37 32.17919 34.83834 122 ft 15 kts 287°
2026-04-28 08:37 32.18079 34.83284 170 ft 112 kts 291°
2026-04-28 08:38 32.18663 34.82803 782 ft 135 kts 24°
2026-04-28 08:38 32.19136 34.83580 843 ft 127 kts 95°
2026-04-28 08:38 32.18956 34.84539 725 ft 113 kts 106°
2026-04-28 08:38 32.18589 34.85297 649 ft 108 kts 159°
2026-04-28 08:39 32.17867 34.85185 548 ft 103 kts 210°
2026-04-28 08:39 32.17723 34.84505 318 ft 84 kts 289°
2026-04-28 08:39 32.17909 34.83867 140 ft 85 kts 290°
2026-04-28 08:39 32.18093 34.83234 108 ft 95 kts 289°
2026-04-28 08:40 32.18635 34.82771 491 ft 128 kts 19°
2026-04-28 08:40 32.19332 34.83407 775 ft 132 kts 72°
2026-04-28 08:40 32.19111 34.84360 694 ft 118 kts 113°
2026-04-28 08:40 32.18601 34.85054 730 ft 107 kts 186°
2026-04-28 08:41 32.18113 34.84571 473 ft 93 kts 240°
2026-04-28 08:41 32.17919 34.83870 151 ft 88 kts 282°
2026-04-28 08:41 32.18109 34.83188 117 ft 106 kts 289°
2026-04-28 08:41 32.18680 34.82734 564 ft 126 kts 13°
2026-04-28 08:42 32.19369 34.83454 758 ft 146 kts 78°
2026-04-28 08:42 32.19095 34.84566 726 ft 134 kts 118°
2026-04-28 08:42 32.18565 34.85322 628 ft 112 kts 168°
2026-04-28 08:42 32.17804 34.85176 535 ft 108 kts 216°
2026-04-28 08:43 32.17747 34.84426 276 ft 102 kts 288°
2026-04-28 08:43 32.17966 34.83670 113 ft 78 kts 288°
2026-04-28 08:43 32.18125 34.83132 95 ft 60 kts 292°
2026-04-28 08:43 32.18164 34.82997 94 ft 1 kts 279°
2026-04-28 08:44 32.18145 34.82901 93 ft 18 kts 290°
2026-04-28 08:44 32.18201 34.82819 94 ft 17 kts 320°
2026-04-28 08:44 32.18229 34.82817 93 ft 0 kts 113°
2026-04-28 08:44 32.18216 34.82835 93 ft 23 kts 154°
2026-04-28 08:45 32.18141 34.82928 94 ft 14 kts 111°
2026-04-28 08:45 32.18145 34.82960 94 ft 4 kts 39°
2026-04-28 08:45 32.18140 34.83006 95 ft 19 kts 121°
2026-04-28 08:45 32.18068 34.83211 99 ft 33 kts 110°
2026-04-28 08:46 32.18019 34.83376 103 ft 9 kts 108°
2026-04-28 08:46 32.17989 34.83477 105 ft 36 kts 109°
2026-04-28 08:46 32.17920 34.83710 115 ft 15 kts 109°
2026-04-28 08:46 32.17907 34.83754 117 ft 0 kts 108°
2026-04-28 08:47 32.17895 34.83794 119 ft 6 kts 112°
2026-04-28 08:47 32.17902 34.83865 123 ft 3 kts
2026-04-28 08:47 32.17915 34.83847 122 ft 0 kts 287°
2026-04-28 08:47 32.17950 34.83727 116 ft 60 kts 289°
2026-04-28 08:48 32.18204 34.82901 201 ft 138 kts 307°
2026-04-28 08:48 32.19108 34.83048 855 ft 150 kts 21°
2026-04-28 08:48 32.19893 34.83741 817 ft 135 kts 56°
2026-04-28 08:48 32.20319 34.84734 762 ft 139 kts 62°
2026-04-28 08:49 32.20802 34.85757 777 ft 144 kts 56°
2026-04-28 08:49 32.21340 34.86761 802 ft 145 kts 56°
2026-04-28 08:49 32.21938 34.87725 824 ft 145 kts 44°
2026-04-28 08:49 32.22798 34.88340 736 ft 145 kts 14°
2026-04-28 08:50 32.23764 34.88640 794 ft 141 kts 14°
2026-04-28 08:50 32.24710 34.88949 774 ft 145 kts 12°
2026-04-28 08:50 32.25703 34.89170 733 ft 146 kts
2026-04-28 08:50 32.26784 34.89420 757 ft 170 kts 10°
2026-04-28 08:51 32.27995 34.89673 763 ft 180 kts
2026-04-28 08:51 32.29250 34.89816 762 ft 182 kts
2026-04-28 08:51 32.30499 34.90106 765 ft 183 kts 12°
2026-04-28 08:51 32.31755 34.90350 812 ft 180 kts
2026-04-28 08:52 32.32969 34.90535 1062 ft 174 kts
2026-04-28 08:52 32.34244 34.90722 1320 ft 193 kts
2026-04-28 08:52 32.35599 34.90859 1485 ft 202 kts
2026-04-28 08:52 32.37019 34.90867 1504 ft 200 kts 358°
2026-04-28 08:53 32.38380 34.90688 1489 ft 195 kts 347°
2026-04-28 08:53 32.39712 34.90466 1492 ft 192 kts 354°
2026-04-28 08:53 32.41054 34.90450 1485 ft 193 kts
2026-04-28 08:53 32.42381 34.90701 1483 ft 194 kts 11°
2026-04-28 08:54 32.43601 34.91015 1489 ft 173 kts 11°
2026-04-28 08:54 32.44823 34.91253 1488 ft 174 kts
2026-04-28 08:54 32.46004 34.91388 1493 ft 168 kts
2026-04-28 08:54 32.47115 34.92012 1711 ft 191 kts 40°
2026-04-28 08:55 32.47952 34.93230 2197 ft 197 kts 64°
2026-04-28 08:55 32.48242 34.94842 2490 ft 209 kts 84°
2026-04-28 08:55 32.48265 34.96506 2492 ft 181 kts 91°
2026-04-28 08:55 32.48238 34.97772 2488 ft 142 kts 91°
2026-04-28 08:56 32.48214 34.99093 2499 ft 174 kts 90°
2026-04-28 08:56 32.48185 35.00581 2503 ft 184 kts 91°
2026-04-28 08:56 32.48150 35.02108 2505 ft 186 kts 91°
2026-04-28 08:56 32.48237 35.03608 2485 ft 171 kts 71°
2026-04-28 08:57 32.48755 35.04856 2482 ft 168 kts 59°
2026-04-28 08:57 32.49330 35.06063 2486 ft 169 kts 59°
2026-04-28 08:57 32.49821 35.07328 2484 ft 169 kts 70°
2026-04-28 08:57 32.50136 35.08676 2491 ft 173 kts 75°
2026-04-28 08:58 32.50497 35.10030 2492 ft 172 kts 64°
2026-04-28 08:58 32.51129 35.11231 2493 ft 172 kts 53°
2026-04-28 08:58 32.51780 35.12422 2495 ft 173 kts 57°
2026-04-28 08:58 32.52435 35.13616 2494 ft 173 kts 51°
2026-04-28 08:59 32.53229 35.14680 2492 ft 171 kts 43°
2026-04-28 08:59 32.54118 35.15612 2495 ft 170 kts 36°
2026-04-28 08:59 32.55069 35.16456 2496 ft 171 kts 35°
2026-04-28 08:59 32.56023 35.17311 2496 ft 172 kts 36°
2026-04-28 09:00 32.56827 35.18367 2491 ft 174 kts 54°
2026-04-28 09:00 32.57382 35.19624 2494 ft 174 kts 64°
2026-04-28 09:00 32.57853 35.20959 2500 ft 176 kts 67°
2026-04-28 09:00 32.58306 35.22310 2500 ft 177 kts 67°
2026-04-28 09:01 32.58759 35.23650 2498 ft 173 kts 67°
2026-04-28 09:01 32.59206 35.24979 2500 ft 175 kts 66°
2026-04-28 09:01 32.59666 35.26320 2499 ft 176 kts 65°
2026-04-28 09:01 32.60219 35.27613 2500 ft 176 kts 61°
2026-04-28 09:02 32.60788 35.28884 2496 ft 174 kts 60°
2026-04-28 09:02 32.61506 35.30020 2496 ft 172 kts 46°
2026-04-28 09:02 32.62249 35.31129 2486 ft 171 kts 54°
2026-04-28 09:02 32.62874 35.32329 2491 ft 172 kts 59°
2026-04-28 09:03 32.63470 35.33560 2491 ft 173 kts 59°
2026-04-28 09:03 32.64069 35.34793 2491 ft 172 kts 59°
2026-04-28 09:03 32.64665 35.36026 2493 ft 172 kts 59°
2026-04-28 09:03 32.65257 35.37243 2493 ft 169 kts 59°
2026-04-28 09:04 32.65848 35.38454 2496 ft 170 kts 56°
2026-04-28 09:04 32.66598 35.39524 2494 ft 171 kts 44°
2026-04-28 09:04 32.67446 35.40524 2496 ft 172 kts 43°
2026-04-28 09:04 32.68373 35.41415 2497 ft 171 kts 32°
2026-04-28 09:05 32.69375 35.42180 2486 ft 171 kts 29°
2026-04-28 09:05 32.70450 35.42856 2491 ft 180 kts 26°
2026-04-28 09:05 32.71579 35.43544 2502 ft 184 kts 26°
2026-04-28 09:05 32.72691 35.44223 2499 ft 176 kts 26°
2026-04-28 09:06 32.73773 35.44880 2494 ft 173 kts 26°
2026-04-28 09:06 32.74829 35.45520 2494 ft 172 kts 26°
2026-04-28 09:06 32.75894 35.46165 2493 ft 172 kts 26°
2026-04-28 09:06 32.76962 35.46812 2492 ft 172 kts 26°
2026-04-28 09:07 32.78034 35.47458 2493 ft 174 kts 26°
2026-04-28 09:07 32.79116 35.48110 2485 ft 173 kts 26°
2026-04-28 09:07 32.80186 35.48744 2486 ft 171 kts 26°
2026-04-28 09:07 32.81245 35.49361 2491 ft 169 kts 26°
2026-04-28 09:08 32.82303 35.49979 2492 ft 170 kts 26°
2026-04-28 09:08 32.83367 35.50604 2487 ft 170 kts 27°
2026-04-28 09:08 32.84398 35.51292 2486 ft 170 kts 30°
2026-04-28 09:08 32.85424 35.52005 2495 ft 171 kts 30°
2026-04-28 09:09 32.86454 35.52719 2488 ft 171 kts 30°
2026-04-28 09:09 32.87461 35.53468 2493 ft 171 kts 36°
2026-04-28 09:09 32.88361 35.54367 2494 ft 171 kts 40°
2026-04-28 09:09 32.89255 35.55302 2492 ft 171 kts 41°
2026-04-28 09:10 32.90149 35.56239 2492 ft 171 kts 41°
2026-04-28 09:10 32.91109 35.57059 2489 ft 169 kts 28°
2026-04-28 09:10 32.92183 35.57638 2488 ft 169 kts 21°
2026-04-28 09:10 32.93292 35.58106 2486 ft 169 kts 18°
2026-04-28 09:11 32.94407 35.58543 2487 ft 169 kts 18°
2026-04-28 09:11 32.95531 35.58981 2478 ft 170 kts 18°
2026-04-28 09:11 32.96674 35.59395 2402 ft 173 kts
2026-04-28 09:11 32.97779 35.59204 2114 ft 151 kts 313°
2026-04-28 09:12 32.98054 35.58271 1304 ft 113 kts 231°
2026-04-28 09:12 32.97778 35.57549 974 ft 86 kts 283°
2026-04-28 09:12 32.98244 35.57088 895 ft 93 kts 329°
2026-04-28 09:12 32.98901 35.56627 1046 ft 124 kts 329°
2026-04-28 09:13 32.99765 35.56537 1496 ft 141 kts 24°
2026-04-28 09:13 33.00543 35.57379 1759 ft 161 kts 41°
2026-04-28 09:13 33.01487 35.58285 2097 ft 177 kts 36°
2026-04-28 09:13 33.02415 35.59119 2083 ft 163 kts 36°
2026-04-28 09:14 33.03290 35.59931 2175 ft 169 kts 41°
2026-04-28 09:14 33.04230 35.60959 2328 ft 183 kts 43°
2026-04-28 09:14 33.05056 35.61840 2464 ft 143 kts 29°
2026-04-28 09:14 33.05986 35.62144 2486 ft 137 kts 11°
2026-04-28 09:15 33.06924 35.62392 2481 ft 138 kts 12°
2026-04-28 09:15 33.07870 35.62604 2493 ft 153 kts
2026-04-28 09:15 33.09037 35.62763 2503 ft 182 kts
2026-04-28 09:15 33.10287 35.62964 2502 ft 174 kts
2026-04-28 09:16 33.11462 35.63114 2493 ft 164 kts
2026-04-28 09:16 33.12598 35.63227 2500 ft 164 kts
2026-04-28 09:16 33.13739 35.63338 2491 ft 162 kts
2026-04-28 09:16 33.14853 35.63252 2488 ft 161 kts 344°
2026-04-28 09:17 33.15895 35.62766 2485 ft 161 kts 327°
2026-04-28 09:17 33.16774 35.61962 2278 ft 156 kts 321°
2026-04-28 09:17 33.17601 35.61182 1930 ft 149 kts 321°
2026-04-28 09:17 33.18385 35.60458 1566 ft 127 kts 321°
2026-04-28 09:18 33.19080 35.59825 1195 ft 132 kts 320°
2026-04-28 09:18 33.19766 35.59248 845 ft 115 kts 331°
2026-04-28 09:18 33.20534 35.58975 499 ft 109 kts 359°
2026-04-28 09:18 33.21175 35.59232 306 ft 86 kts 32°
2026-04-28 09:19 33.21577 35.59575 332 ft 47 kts 37°
2026-04-28 09:19 33.21677 35.59659 342 ft 3 kts 41°
2026-04-28 09:19 33.21596 35.59599 332 ft 35 kts 218°
2026-04-28 09:19 33.21447 35.59464 319 ft 15 kts 218°
2026-04-28 09:20 33.21405 35.59384 312 ft 10 kts 311°
2026-04-28 09:20 33.21384 35.59308 307 ft 8 kts 220°
2026-04-28 09:20 33.21375 35.59280 306 ft 8 kts 282°